VTUD

Details ICAO VTUD (UTH)
Name Udon Thani
Region Thailand
Timezone Asia/Bangkok (UTC+7.0)
Plans Departing 23
Arriving 27
Stats Elevation 579 ft / 176 m (AMSL)
Location 17.386436° 102.788247°
Runways 1
Magnetic Variation 0.872° W
Sunrise 2017-12-17 23:33:58 UTC / 2017-12-18 06:33:58 Local
Sunset 2017-12-18 10:39:23 UTC / 2017-12-18 17:39:23 Local
Advertisement - Login to hide

Runways

ID Width Length Bearing (true) Bearing (mag) Surface Threshold Offset Overrun Length
12 148 ft / 45 m 10,012 ft / 3,052 m 117.17° 118.04° Asphalt 0 ft / 0 m 1,001 ft / 305 m
30 148 ft / 45 m 10,012 ft / 3,052 m 297.17° 298.04° Asphalt 0 ft / 0 m 997 ft / 304 m

Approach Navaids

Runway Type Ident Frequency Range Bearing (true) Bearing (mag) Slope Elevation
30 Localiser IUDN 110.10 MHz 18 nm / 33 km 297.16° 298.03° - 579 ft / 176 m (AMSL)
30 Glidescope IUDN 110.10 MHz 10 nm / 19 km 297.17° 298.04° 3.00° 579 ft / 176 m (AMSL)
30 DME IUDN 110.10 MHz 18 nm / 33 km - - - 579 ft / 176 m (AMSL)

Map

Weather


0- 5 10 15 20 25 30 35+ Temperature / ° C

Clouds and Precipitation
Forecast for 2017-12-18 06:00 UTC. Updated 26 minutes ago

Ground ~20,000 ft ~40,000 ft Winds

METAR

VTUD 180500Z 05009KT 010V100 9000 NSC 21/07 Q1023

TAF

TAF VTUD 172300Z 1800/1824 08003KT 6000 NSC BECMG 1801/1802 04010KT CAVOK

Frequencies

Ground 121.90 MHz GND
Approach 126.20 MHz APP
Tower 122.50 MHz TWR
Warning: Do not use this data for real-world aviation or navigation. No guarantee of current accuracy is given.